createdAt,value
2023-01-25T00:01:06.516Z,11.85
2023-01-25T00:04:11.968Z,9.30
2023-01-25T00:07:19.030Z,10.02
2023-01-25T00:10:24.407Z,11.38
2023-01-25T00:13:37.463Z,9.68
2023-01-25T00:16:45.881Z,8.82
2023-01-25T00:19:55.535Z,9.70
2023-01-25T00:23:03.454Z,13.52
2023-01-25T00:26:10.265Z,7.30
2023-01-25T00:29:19.596Z,12.27
2023-01-25T00:32:32.295Z,6.53
2023-01-25T00:35:38.279Z,9.73
2023-01-25T00:38:47.603Z,11.43
2023-01-25T00:42:03.464Z,7.32
2023-01-25T00:45:18.773Z,13.98
2023-01-25T00:48:32.044Z,7.93
2023-01-25T00:51:40.470Z,13.73
2023-01-25T00:54:45.681Z,14.05
2023-01-25T00:57:51.364Z,11.52
2023-01-25T01:01:13.746Z,9.85
2023-01-25T01:04:25.182Z,9.77
2023-01-25T01:07:41.061Z,11.25
2023-01-25T01:10:50.765Z,8.20
2023-01-25T01:14:00.265Z,12.60
2023-01-25T01:17:11.694Z,9.60
2023-01-25T01:20:29.395Z,12.10
2023-01-25T01:23:39.364Z,9.32
2023-01-25T01:26:44.877Z,8.07
2023-01-25T01:29:50.594Z,11.98
2023-01-25T01:33:01.058Z,10.25
2023-01-25T01:36:10.099Z,10.90
2023-01-25T01:39:15.147Z,11.32
2023-01-25T01:42:22.203Z,9.45
2023-01-25T01:45:45.658Z,9.02
2023-01-25T01:48:58.639Z,12.00
2023-01-25T01:52:04.895Z,11.07
2023-01-25T01:55:11.966Z,11.20
2023-01-25T01:58:16.963Z,8.00
2023-01-25T02:01:24.564Z,12.98
2023-01-25T02:04:33.241Z,15.35
2023-01-25T02:07:40.076Z,13.82
2023-01-25T02:10:45.913Z,15.32
2023-01-25T02:13:51.905Z,12.35
2023-01-25T02:16:57.348Z,13.10
2023-01-25T02:20:12.987Z,14.00
2023-01-25T02:23:22.338Z,21.20
2023-01-25T02:26:31.166Z,15.00
2023-01-25T02:29:36.719Z,13.23
2023-01-25T02:32:42.853Z,16.00
2023-01-25T02:35:52.671Z,19.17
2023-01-25T02:38:59.552Z,14.77
2023-01-25T02:42:10.326Z,14.48
2023-01-25T02:45:19.645Z,19.95
2023-01-25T02:48:25.039Z,18.33
2023-01-25T02:51:31.271Z,13.63
2023-01-25T02:54:38.271Z,14.82
2023-01-25T02:57:48.891Z,18.30
2023-01-25T03:00:55.076Z,15.50
2023-01-25T03:04:00.980Z,15.60
2023-01-25T03:07:06.813Z,14.32
2023-01-25T03:10:16.907Z,12.15
2023-01-25T03:13:25.576Z,15.45
2023-01-25T03:16:31.455Z,14.55
2023-01-25T03:19:39.399Z,11.82
2023-01-25T03:22:46.129Z,13.52
2023-01-25T03:26:01.763Z,10.85
2023-01-25T03:29:09.962Z,9.15
2023-01-25T03:32:15.094Z,12.60
2023-01-25T03:35:22.124Z,14.60
2023-01-25T03:38:28.395Z,11.63
2023-01-25T03:41:36.197Z,13.70
2023-01-25T03:44:45.688Z,8.73
2023-01-25T03:47:53.582Z,8.95
2023-01-25T03:50:59.849Z,9.77
2023-01-25T03:54:08.582Z,12.70
2023-01-25T03:57:13.893Z,10.70
2023-01-25T04:00:26.774Z,13.13
2023-01-25T04:03:34.080Z,12.38
2023-01-25T04:06:41.822Z,10.15
2023-01-25T04:09:46.978Z,13.50
2023-01-25T04:12:53.181Z,9.23
2023-01-25T04:16:01.518Z,11.20
2023-01-25T04:19:08.063Z,11.57
2023-01-25T04:22:13.178Z,9.52
2023-01-25T04:25:19.159Z,12.65
2023-01-25T04:28:24.628Z,10.95
2023-01-25T04:31:33.499Z,9.30
2023-01-25T04:34:38.910Z,11.40
2023-01-25T04:37:46.043Z,11.43
2023-01-25T04:40:53.334Z,8.73
2023-01-25T04:43:59.237Z,9.52
2023-01-25T04:47:07.575Z,8.02
2023-01-25T04:50:13.837Z,10.38
2023-01-25T04:53:23.080Z,7.85
2023-01-25T04:56:31.184Z,5.60
2023-01-25T04:59:36.380Z,8.13
2023-01-25T05:02:48.313Z,7.35
2023-01-25T05:05:54.839Z,8.70
2023-01-25T05:09:01.046Z,8.60
2023-01-25T05:12:11.858Z,9.20
2023-01-25T05:15:20.497Z,8.57
2023-01-25T05:18:42.583Z,8.55
2023-01-25T05:22:01.934Z,8.43
2023-01-25T05:25:27.599Z,9.07
2023-01-25T05:28:32.579Z,7.18
2023-01-25T05:31:37.686Z,7.40
2023-01-25T05:34:46.257Z,8.77
2023-01-25T05:37:51.849Z,8.18
2023-01-25T05:41:02.896Z,7.55
2023-01-25T05:44:10.037Z,8.27
2023-01-25T05:47:16.642Z,7.88
2023-01-25T05:50:26.457Z,6.07
2023-01-25T05:53:32.331Z,9.27
2023-01-25T05:56:37.619Z,7.47
2023-01-25T05:59:42.919Z,6.38
2023-01-25T06:02:48.083Z,7.20
2023-01-25T06:06:02.014Z,8.20
2023-01-25T06:09:06.983Z,8.98
2023-01-25T06:12:15.069Z,7.65
2023-01-25T06:15:26.325Z,8.77
2023-01-25T06:18:32.616Z,8.45
2023-01-25T06:21:40.208Z,9.70
2023-01-25T06:24:46.586Z,7.75
2023-01-25T06:27:51.771Z,8.50
2023-01-25T06:30:57.261Z,5.88
2023-01-25T06:34:04.725Z,7.82
2023-01-25T06:37:13.206Z,5.40
2023-01-25T06:40:19.148Z,10.40
2023-01-25T06:43:24.796Z,8.63
2023-01-25T06:46:30.863Z,8.00
2023-01-25T06:49:39.071Z,6.78
2023-01-25T06:52:47.413Z,9.02
2023-01-25T06:55:59.815Z,8.60
2023-01-25T06:59:04.838Z,8.02
2023-01-25T07:02:12.619Z,6.28
2023-01-25T07:05:17.858Z,6.50
2023-01-25T07:08:25.941Z,7.97
2023-01-25T07:11:31.126Z,7.85
2023-01-25T07:14:41.037Z,7.47
2023-01-25T07:17:45.936Z,7.53
2023-01-25T07:20:51.589Z,8.23
2023-01-25T07:24:02.773Z,6.45
2023-01-25T07:27:09.574Z,6.68
2023-01-25T07:30:15.436Z,4.90
2023-01-25T07:33:21.050Z,8.35
2023-01-25T07:36:33.312Z,6.78
2023-01-25T07:39:48.272Z,8.48
2023-01-25T07:42:54.135Z,9.98
2023-01-25T07:46:03.543Z,6.68
2023-01-25T07:49:08.742Z,7.93
2023-01-25T07:52:14.357Z,5.63
2023-01-25T07:55:24.480Z,6.78
2023-01-25T07:58:31.057Z,8.15
2023-01-25T08:01:37.775Z,8.73
2023-01-25T08:04:45.737Z,11.10
2023-01-25T08:07:51.220Z,8.52
2023-01-25T08:10:59.618Z,8.63
2023-01-25T08:14:07.012Z,10.20
2023-01-25T08:17:12.524Z,8.55
2023-01-25T08:20:17.640Z,16.00
2023-01-25T08:23:23.871Z,8.50
2023-01-25T08:26:34.976Z,8.20
2023-01-25T08:29:40.403Z,6.80
2023-01-25T08:32:45.673Z,5.85
2023-01-25T08:35:57.575Z,9.55
2023-01-25T08:39:04.488Z,7.97
2023-01-25T08:42:12.522Z,5.05
2023-01-25T08:45:17.596Z,9.35
2023-01-25T08:48:23.359Z,8.63
2023-01-25T08:51:31.972Z,13.35
2023-01-25T08:54:39.471Z,8.20
2023-01-25T08:57:47.217Z,7.10
2023-01-25T09:00:53.147Z,9.23
2023-01-25T09:03:58.325Z,8.90
2023-01-25T09:07:03.888Z,7.68
2023-01-25T09:10:10.731Z,7.30
2023-01-25T09:13:25.198Z,8.27
2023-01-25T09:16:31.360Z,7.60
2023-01-25T09:19:37.187Z,8.77
2023-01-25T09:22:42.138Z,9.15
2023-01-25T09:25:48.328Z,8.20
2023-01-25T09:28:56.685Z,6.78
2023-01-25T09:32:03.792Z,7.35
2023-01-25T09:35:09.620Z,5.60
2023-01-25T09:38:15.948Z,9.60
2023-01-25T09:41:29.024Z,8.27
2023-01-25T09:44:44.753Z,9.10
2023-01-25T09:47:52.904Z,11.75
2023-01-25T09:51:08.810Z,10.43
2023-01-25T09:54:17.538Z,12.95
2023-01-25T09:57:27.653Z,11.65
2023-01-25T10:00:36.863Z,13.52
2023-01-25T10:03:46.172Z,12.32
2023-01-25T10:07:01.117Z,14.23
2023-01-25T10:10:12.269Z,23.88
2023-01-25T10:13:18.591Z,14.98
2023-01-25T10:16:33.174Z,23.60
2023-01-25T10:22:55.879Z,28.05
2023-01-25T10:26:04.431Z,40.20
2023-01-25T10:29:12.206Z,38.88
2023-01-25T10:32:21.932Z,39.72
2023-01-25T10:35:35.911Z,50.88
2023-01-25T10:38:43.851Z,46.88
2023-01-25T10:41:52.351Z,35.85
2023-01-25T10:45:00.174Z,40.42
2023-01-25T10:48:09.972Z,42.55
2023-01-25T10:51:31.031Z,42.13
2023-01-25T10:54:37.842Z,38.88
2023-01-25T10:57:46.462Z,32.22
2023-01-25T11:00:55.585Z,31.55
2023-01-25T11:04:05.061Z,34.80
2023-01-25T11:07:27.178Z,42.88
2023-01-25T11:10:33.776Z,44.22
2023-01-25T11:13:43.188Z,52.80
2023-01-25T11:16:49.393Z,46.53
2023-01-25T11:20:10.715Z,33.58
2023-01-25T11:23:37.192Z,29.23
2023-01-25T11:26:48.632Z,26.13
2023-01-25T11:30:09.285Z,35.88
2023-01-25T11:33:17.044Z,34.03
2023-01-25T11:36:25.944Z,34.28
2023-01-25T11:39:43.261Z,28.98
2023-01-25T11:42:58.575Z,28.88
2023-01-25T11:46:10.141Z,42.53
2023-01-25T11:52:27.348Z,31.92
2023-01-25T11:55:34.919Z,35.70
2023-01-25T11:58:53.313Z,41.45
2023-01-25T12:02:04.929Z,36.60
2023-01-25T12:05:22.093Z,34.23
2023-01-25T12:08:37.804Z,50.95
2023-01-25T12:12:00.878Z,55.65
2023-01-25T12:15:16.321Z,51.60
2023-01-25T12:18:30.618Z,44.35
2023-01-25T12:21:42.107Z,44.72
2023-01-25T12:24:53.488Z,36.27
2023-01-25T12:28:06.943Z,39.33
2023-01-25T12:31:22.537Z,34.50
2023-01-25T12:34:30.840Z,38.00
2023-01-25T12:37:42.652Z,35.20
2023-01-25T12:40:50.675Z,33.53
2023-01-25T12:43:57.566Z,38.60
2023-01-25T12:47:08.495Z,32.97
2023-01-25T12:50:21.138Z,30.70
2023-01-25T12:53:31.578Z,31.40
2023-01-25T12:56:41.207Z,26.42
2023-01-25T12:59:49.705Z,26.10
2023-01-25T13:03:15.117Z,35.55
2023-01-25T13:06:31.193Z,30.35
2023-01-25T13:09:41.176Z,36.65
2023-01-25T13:12:56.093Z,33.83
2023-01-25T13:16:21.487Z,35.03
2023-01-25T13:19:42.367Z,36.33
2023-01-25T13:23:01.250Z,21.10
2023-01-25T13:26:26.136Z,27.75
2023-01-25T13:29:57.860Z,28.83
2023-01-25T13:33:09.970Z,25.42
2023-01-25T13:36:30.600Z,32.53
2023-01-25T13:39:57.904Z,28.98
2023-01-25T13:43:09.262Z,21.95
2023-01-25T13:46:16.815Z,25.92
2023-01-25T13:49:25.674Z,25.75
2023-01-25T13:52:32.850Z,22.88
2023-01-25T13:55:47.432Z,19.50
2023-01-25T13:58:53.179Z,11.63
2023-01-25T14:01:58.837Z,21.05
2023-01-25T14:05:08.417Z,15.60
2023-01-25T14:08:16.731Z,19.23
2023-01-25T14:11:26.687Z,18.42
2023-01-25T14:14:33.597Z,19.63
2023-01-25T14:17:43.509Z,20.98
2023-01-25T14:20:52.192Z,17.67
2023-01-25T14:23:57.262Z,17.95
2023-01-25T14:27:08.114Z,12.02
2023-01-25T14:30:19.111Z,12.80
2023-01-25T14:33:26.212Z,11.85
2023-01-25T14:36:33.759Z,19.80
2023-01-25T14:39:39.585Z,17.23
2023-01-25T14:42:47.403Z,15.90
2023-01-25T14:45:53.328Z,16.10
2023-01-25T14:49:14.395Z,15.35
2023-01-25T14:52:21.991Z,15.50
2023-01-25T14:55:28.432Z,17.88
2023-01-25T14:58:36.535Z,13.73
2023-01-25T15:01:49.940Z,13.32
2023-01-25T15:05:11.020Z,14.90
2023-01-25T15:08:29.160Z,12.57
2023-01-25T15:11:45.615Z,12.07
2023-01-25T15:14:57.264Z,14.32
2023-01-25T15:18:05.136Z,13.60
2023-01-25T15:21:11.782Z,13.52
2023-01-25T15:24:17.748Z,16.35
2023-01-25T15:27:25.421Z,14.68
2023-01-25T15:30:33.594Z,15.05
2023-01-25T15:33:40.160Z,11.82
2023-01-25T15:36:45.523Z,9.00
2023-01-25T15:39:54.193Z,15.07
2023-01-25T15:43:00.043Z,16.23
2023-01-25T15:46:24.543Z,16.08
2023-01-25T15:49:39.590Z,13.10
2023-01-25T15:52:44.990Z,17.58
2023-01-25T15:56:04.970Z,12.55
2023-01-25T15:59:11.884Z,18.48
2023-01-25T16:02:27.304Z,17.67
2023-01-25T16:05:36.477Z,16.98
2023-01-25T16:12:06.540Z,18.35
2023-01-25T16:15:21.592Z,22.60
2023-01-25T16:18:29.361Z,15.48
2023-01-25T16:21:35.208Z,17.35
2023-01-25T16:24:40.391Z,18.90
2023-01-25T16:27:56.550Z,20.38
2023-01-25T16:31:01.532Z,21.00
2023-01-25T16:34:10.954Z,20.45
2023-01-25T16:37:18.681Z,21.25
2023-01-25T16:40:25.577Z,16.33
2023-01-25T16:43:42.256Z,19.63
2023-01-25T16:46:49.131Z,19.55
2023-01-25T16:50:00.718Z,16.42
2023-01-25T16:56:28.209Z,24.55
2023-01-25T16:59:33.921Z,19.15
2023-01-25T17:02:41.941Z,18.58
2023-01-25T17:05:55.298Z,18.73
2023-01-25T17:09:12.705Z,16.27
2023-01-25T17:12:27.601Z,14.75
2023-01-25T17:15:33.332Z,17.80
2023-01-25T17:18:39.178Z,18.20
2023-01-25T17:21:46.962Z,16.55
2023-01-25T17:24:55.191Z,16.83
2023-01-25T17:28:00.071Z,20.13
2023-01-25T17:31:07.009Z,18.25
2023-01-25T17:34:16.569Z,20.70
2023-01-25T17:37:24.565Z,22.95
2023-01-25T17:40:29.555Z,18.92
2023-01-25T17:43:34.941Z,19.05
2023-01-25T17:46:39.943Z,21.75
2023-01-25T17:49:52.274Z,22.30
2023-01-25T17:52:59.790Z,22.45
2023-01-25T17:56:05.859Z,19.98
2023-01-25T17:59:14.202Z,18.25
2023-01-25T18:02:21.206Z,21.73
2023-01-25T18:05:26.607Z,19.02
2023-01-25T18:08:35.750Z,17.50
2023-01-25T18:11:44.869Z,16.80
2023-01-25T18:14:51.323Z,22.90
2023-01-25T18:17:56.559Z,20.08
2023-01-25T18:21:05.934Z,15.70
2023-01-25T18:24:29.982Z,15.48
2023-01-25T18:27:38.723Z,17.85
2023-01-25T18:30:54.488Z,24.98
2023-01-25T18:34:00.571Z,22.38
2023-01-25T18:37:18.100Z,21.70
2023-01-25T18:40:30.004Z,23.77
2023-01-25T18:43:35.038Z,22.30
2023-01-25T18:46:43.121Z,18.52
2023-01-25T18:49:49.427Z,23.25
2023-01-25T18:52:59.277Z,22.67
2023-01-25T18:56:09.823Z,23.88
2023-01-25T18:59:19.454Z,26.38
2023-01-25T19:02:26.160Z,27.30
2023-01-25T19:05:31.387Z,23.52
2023-01-25T19:08:40.951Z,33.00
2023-01-25T19:11:49.050Z,27.45
2023-01-25T19:14:54.404Z,28.73
2023-01-25T19:17:59.883Z,33.22
2023-01-25T19:21:09.910Z,32.03
2023-01-25T19:24:18.663Z,29.17
2023-01-25T19:27:27.055Z,39.03
2023-01-25T19:30:32.469Z,42.38
2023-01-25T19:33:40.338Z,46.90
2023-01-25T19:36:54.122Z,45.38
2023-01-25T19:39:59.137Z,57.88
2023-01-25T19:43:09.064Z,61.97
2023-01-25T19:46:16.808Z,54.63
2023-01-25T19:49:23.717Z,53.40
2023-01-25T19:52:38.737Z,48.05
2023-01-25T19:56:09.360Z,50.58
2023-01-25T20:11:23.231Z,59.42
2023-01-25T20:14:30.991Z,63.50
2023-01-25T20:17:47.478Z,61.53
2023-01-25T20:21:02.356Z,66.80
2023-01-25T20:24:18.184Z,67.57
2023-01-25T20:31:13.175Z,49.28
2023-01-25T20:34:21.568Z,64.32
2023-01-25T20:37:29.716Z,46.40
2023-01-25T20:40:36.151Z,73.03
2023-01-25T20:43:42.415Z,59.75
2023-01-25T20:46:51.610Z,54.83
2023-01-25T20:49:58.079Z,51.22
2023-01-25T20:53:06.618Z,48.40
2023-01-25T20:56:15.469Z,40.83
2023-01-25T20:59:28.167Z,49.25
2023-01-25T21:02:35.732Z,47.42
2023-01-25T21:05:42.729Z,45.22
2023-01-25T21:09:10.918Z,41.47
2023-01-25T21:12:28.824Z,38.75
2023-01-25T21:15:59.931Z,38.53
2023-01-25T21:19:14.161Z,33.33
2023-01-25T21:22:22.817Z,27.50
2023-01-25T21:25:33.791Z,28.98
2023-01-25T21:28:42.871Z,29.48
2023-01-25T21:31:51.237Z,25.77
2023-01-25T21:35:00.050Z,26.52
2023-01-25T21:38:14.593Z,22.80
2023-01-25T21:41:34.188Z,18.80
2023-01-25T21:44:54.294Z,21.15
2023-01-25T21:48:02.667Z,24.00
2023-01-25T21:51:24.235Z,17.17
2023-01-25T21:54:32.312Z,20.90
2023-01-25T21:58:03.132Z,19.23
2023-01-25T22:01:10.573Z,22.95
2023-01-25T22:04:18.225Z,20.40
2023-01-25T22:07:25.602Z,22.80
2023-01-25T22:10:31.508Z,19.75
2023-01-25T22:13:46.755Z,21.08
2023-01-25T22:16:55.563Z,21.83
2023-01-25T22:20:00.671Z,20.05
2023-01-25T22:23:20.479Z,21.10
2023-01-25T22:26:28.771Z,14.73
2023-01-25T22:29:38.668Z,19.90
2023-01-25T22:32:43.924Z,18.42
2023-01-25T22:35:50.141Z,17.92
2023-01-25T22:38:55.172Z,18.63
2023-01-25T22:42:09.004Z,19.23
2023-01-25T22:48:23.738Z,22.67
2023-01-25T22:51:32.371Z,21.48
2023-01-25T22:54:40.843Z,19.38
2023-01-25T22:57:45.787Z,18.25
2023-01-25T23:00:51.439Z,20.05
2023-01-25T23:04:00.534Z,19.13
2023-01-25T23:07:12.320Z,18.65
2023-01-25T23:10:17.961Z,21.52
2023-01-25T23:13:23.293Z,18.60
2023-01-25T23:16:29.854Z,18.83
2023-01-25T23:19:38.118Z,20.70
2023-01-25T23:22:52.193Z,16.92
2023-01-25T23:25:58.473Z,13.98
2023-01-25T23:29:03.359Z,18.33
2023-01-25T23:32:09.332Z,18.58
2023-01-25T23:35:16.887Z,18.50
2023-01-25T23:38:22.290Z,21.27
2023-01-25T23:41:28.045Z,19.05
2023-01-25T23:44:33.538Z,21.58
2023-01-25T23:47:38.609Z,18.85
2023-01-25T23:50:47.364Z,20.67
2023-01-25T23:53:53.595Z,20.15
2023-01-25T23:56:59.790Z,21.15
